createdAt,value
2022-12-28T00:00:53.453Z,8.43
2022-12-28T00:03:56.364Z,7.90
2022-12-28T00:06:58.456Z,6.57
2022-12-28T00:10:00.735Z,7.78
2022-12-28T00:13:03.510Z,7.95
2022-12-28T00:16:11.486Z,7.85
2022-12-28T00:19:15.974Z,6.47
2022-12-28T00:22:18.158Z,7.27
2022-12-28T00:25:20.248Z,6.45
2022-12-28T00:28:22.536Z,5.80
2022-12-28T00:31:24.727Z,6.70
2022-12-28T00:34:27.042Z,6.57
2022-12-28T00:37:29.179Z,6.87
2022-12-28T00:40:31.503Z,7.45
2022-12-28T00:43:34.018Z,7.53
2022-12-28T00:46:36.334Z,6.57
2022-12-28T00:49:38.335Z,7.23
2022-12-28T00:52:40.539Z,7.00
2022-12-28T00:55:43.163Z,7.60
2022-12-28T00:58:46.142Z,7.25
2022-12-28T01:01:48.384Z,6.75
2022-12-28T01:04:50.586Z,7.37
2022-12-28T01:07:52.666Z,7.03
2022-12-28T01:10:54.908Z,8.00
2022-12-28T01:14:00.574Z,8.75
2022-12-28T01:17:02.784Z,7.25
2022-12-28T01:20:05.906Z,7.57
2022-12-28T01:23:08.061Z,6.80
2022-12-28T01:26:13.608Z,7.70
2022-12-28T01:29:15.636Z,8.05
2022-12-28T01:32:17.766Z,8.00
2022-12-28T01:35:19.899Z,8.00
2022-12-28T01:38:22.004Z,6.73
2022-12-28T01:41:26.623Z,7.75
2022-12-28T01:44:34.616Z,6.53
2022-12-28T01:47:36.821Z,6.22
2022-12-28T01:50:38.918Z,6.60
2022-12-28T01:53:41.335Z,7.77
2022-12-28T01:56:44.609Z,6.22
2022-12-28T01:59:53.333Z,5.45
2022-12-28T02:03:07.620Z,5.82
2022-12-28T02:06:12.691Z,5.80
2022-12-28T02:09:21.300Z,5.83
2022-12-28T02:12:24.970Z,5.37
2022-12-28T02:15:27.153Z,5.22
2022-12-28T02:18:29.405Z,5.22
2022-12-28T02:21:46.134Z,5.40
2022-12-28T02:25:13.254Z,5.20
2022-12-28T02:28:58.839Z,5.40
2022-12-28T02:32:13.720Z,5.53
2022-12-28T02:35:21.594Z,5.50
2022-12-28T02:38:31.241Z,6.07
2022-12-28T02:41:34.838Z,5.73
2022-12-28T02:44:56.282Z,6.37
2022-12-28T02:48:16.782Z,5.60
2022-12-28T02:51:37.719Z,5.90
2022-12-28T02:55:12.628Z,5.17
2022-12-28T02:58:39.554Z,5.60
2022-12-28T03:01:59.934Z,6.03
2022-12-28T03:05:13.323Z,5.78
2022-12-28T03:08:27.010Z,5.43
2022-12-28T03:11:44.969Z,4.50
2022-12-28T03:14:54.162Z,4.50
2022-12-28T03:18:31.367Z,2.92
2022-12-28T03:21:53.546Z,3.42
2022-12-28T03:25:17.488Z,5.25
2022-12-28T03:28:43.314Z,5.57
2022-12-28T03:31:45.504Z,5.17
2022-12-28T03:34:47.678Z,5.07
2022-12-28T03:38:01.541Z,4.03
2022-12-28T03:41:12.984Z,5.05
2022-12-28T03:44:35.356Z,5.03
2022-12-28T03:47:40.098Z,4.57
2022-12-28T03:50:46.160Z,5.22
2022-12-28T03:53:48.515Z,4.85
2022-12-28T03:56:52.013Z,4.87
2022-12-28T03:59:54.140Z,5.20
2022-12-28T04:02:56.494Z,4.70
2022-12-28T04:05:58.733Z,5.05
2022-12-28T04:09:00.967Z,4.10
2022-12-28T04:12:03.105Z,4.82
2022-12-28T04:15:06.027Z,4.50
2022-12-28T04:18:08.253Z,5.03
2022-12-28T04:21:11.654Z,5.78
2022-12-28T04:24:13.822Z,4.70
2022-12-28T04:27:15.959Z,4.93
2022-12-28T04:30:18.068Z,4.60
2022-12-28T04:33:20.262Z,4.67
2022-12-28T04:36:22.348Z,5.10
2022-12-28T04:39:24.463Z,4.62
2022-12-28T04:42:26.686Z,4.97
2022-12-28T04:45:28.716Z,4.23
2022-12-28T04:48:31.713Z,4.50
2022-12-28T04:51:34.047Z,4.20
2022-12-28T04:54:36.138Z,4.20
2022-12-28T04:57:38.202Z,3.72
2022-12-28T05:00:40.679Z,4.83
2022-12-28T05:03:49.499Z,3.63
2022-12-28T05:06:56.393Z,3.85
2022-12-28T05:09:58.541Z,2.67
2022-12-28T05:13:00.549Z,2.55
2022-12-28T05:16:04.483Z,3.60
2022-12-28T05:19:06.770Z,3.20
2022-12-28T05:22:12.020Z,2.50
2022-12-28T05:25:14.227Z,2.33
2022-12-28T05:28:16.256Z,3.28
2022-12-28T05:31:21.323Z,2.73
2022-12-28T05:34:23.420Z,3.17
2022-12-28T05:37:25.504Z,2.47
2022-12-28T05:40:27.701Z,3.40
2022-12-28T05:43:30.704Z,3.80
2022-12-28T05:46:34.780Z,3.20
2022-12-28T05:49:37.743Z,3.90
2022-12-28T05:52:39.866Z,3.40
2022-12-28T05:55:41.879Z,3.33
2022-12-28T05:58:45.625Z,3.87
2022-12-28T06:01:47.887Z,3.33
2022-12-28T06:04:50.080Z,3.40
2022-12-28T06:07:53.451Z,3.15
2022-12-28T06:10:59.965Z,3.40
2022-12-28T06:14:03.958Z,3.08
2022-12-28T06:17:06.426Z,2.53
2022-12-28T06:20:08.992Z,2.80
2022-12-28T06:23:11.073Z,2.97
2022-12-28T06:26:15.904Z,3.15
2022-12-28T06:29:18.044Z,1.80
2022-12-28T06:32:20.159Z,1.43
2022-12-28T06:35:22.180Z,2.70
2022-12-28T06:38:24.553Z,1.75
2022-12-28T06:41:28.164Z,2.58
2022-12-28T06:44:30.202Z,2.40
2022-12-28T06:47:33.912Z,2.00
2022-12-28T06:50:40.031Z,1.90
2022-12-28T06:53:43.169Z,1.55
2022-12-28T06:56:45.335Z,2.03
2022-12-28T06:59:47.683Z,2.40
2022-12-28T07:02:49.808Z,3.23
2022-12-28T07:05:51.937Z,5.33
2022-12-28T07:09:03.270Z,5.90
2022-12-28T07:12:05.595Z,6.28
2022-12-28T07:15:08.261Z,6.35
2022-12-28T07:18:10.405Z,6.13
2022-12-28T07:21:16.946Z,6.93
2022-12-28T07:24:19.258Z,6.57
2022-12-28T07:27:21.248Z,7.25
2022-12-28T07:30:23.339Z,7.80
2022-12-28T07:33:25.431Z,7.17
2022-12-28T07:36:30.446Z,7.13
2022-12-28T07:39:32.810Z,7.70
2022-12-28T07:42:35.556Z,7.45
2022-12-28T07:45:37.602Z,6.97
2022-12-28T07:48:40.852Z,6.77
2022-12-28T07:51:42.931Z,7.57
2022-12-28T07:54:45.044Z,8.43
2022-12-28T07:57:47.117Z,7.93
2022-12-28T08:00:50.020Z,8.35
2022-12-28T08:04:01.152Z,7.97
2022-12-28T08:07:03.312Z,7.63
2022-12-28T08:10:05.945Z,7.97
2022-12-28T08:13:08.012Z,7.93
2022-12-28T08:16:12.130Z,7.87
2022-12-28T08:19:14.181Z,7.67
2022-12-28T08:22:16.269Z,7.53
2022-12-28T08:25:18.363Z,7.00
2022-12-28T08:28:20.424Z,7.60
2022-12-28T08:31:25.871Z,6.80
2022-12-28T08:34:27.945Z,6.70
2022-12-28T08:37:30.077Z,6.43
2022-12-28T08:40:32.278Z,6.22
2022-12-28T08:43:35.172Z,6.45
2022-12-28T08:46:37.702Z,11.88
2022-12-28T08:49:39.911Z,6.27
2022-12-28T08:52:42.116Z,7.47
2022-12-28T08:55:44.337Z,7.78
2022-12-28T08:58:47.885Z,1.77
2022-12-28T09:01:50.473Z,1.50
2022-12-28T09:04:52.661Z,1.00
2022-12-28T09:07:59.375Z,1.20
2022-12-28T09:11:04.228Z,1.37
2022-12-28T09:14:09.112Z,1.45
2022-12-28T09:17:11.147Z,1.17
2022-12-28T09:20:13.524Z,1.10
2022-12-28T09:23:15.840Z,1.07
2022-12-28T09:26:24.005Z,0.60
2022-12-28T09:29:26.086Z,0.52
2022-12-28T09:32:28.177Z,0.75
2022-12-28T09:35:30.239Z,0.80
2022-12-28T09:38:32.345Z,1.10
2022-12-28T09:42:12.976Z,2.03
2022-12-28T09:45:16.408Z,1.70
2022-12-28T09:48:23.263Z,3.87
2022-12-28T09:51:31.936Z,2.60
2022-12-28T09:54:34.227Z,2.83
2022-12-28T09:57:40.274Z,2.97
2022-12-28T10:00:56.105Z,3.17
2022-12-28T10:04:01.491Z,1.90
2022-12-28T10:07:03.661Z,1.80
2022-12-28T10:10:06.172Z,2.73
2022-12-28T10:16:56.488Z,1.85
2022-12-28T10:19:59.411Z,1.80
2022-12-28T10:23:02.694Z,3.83
2022-12-28T10:26:06.451Z,1.50
2022-12-28T10:29:16.279Z,2.60
2022-12-28T10:32:19.513Z,1.90
2022-12-28T10:35:30.462Z,3.25
2022-12-28T10:38:35.041Z,1.90
2022-12-28T10:41:38.975Z,2.30
2022-12-28T10:44:41.424Z,2.08
2022-12-28T10:47:48.532Z,2.60
2022-12-28T10:50:52.218Z,2.15
2022-12-28T10:53:56.010Z,2.47
2022-12-28T10:56:58.081Z,2.10
2022-12-28T11:00:26.788Z,2.35
2022-12-28T11:03:32.376Z,1.87
2022-12-28T11:06:37.121Z,2.50
2022-12-28T11:09:39.525Z,1.80
2022-12-28T11:12:45.670Z,1.67
2022-12-28T11:15:54.223Z,1.77
2022-12-28T11:18:57.688Z,1.50
2022-12-28T11:21:59.748Z,1.90
2022-12-28T11:25:02.757Z,1.77
2022-12-28T11:28:17.485Z,1.67
2022-12-28T11:31:33.657Z,1.00
2022-12-28T11:34:37.882Z,2.50
2022-12-28T11:37:52.101Z,5.07
2022-12-28T11:40:55.300Z,2.63
2022-12-28T11:44:01.018Z,1.67
2022-12-28T11:47:22.378Z,1.87
2022-12-28T11:50:34.766Z,2.08
2022-12-28T11:53:45.836Z,1.58
2022-12-28T11:56:47.781Z,2.00
2022-12-28T11:59:49.942Z,1.70
2022-12-28T12:03:03.618Z,1.75
2022-12-28T12:06:06.010Z,1.40
2022-12-28T12:09:26.380Z,1.70
2022-12-28T12:12:31.191Z,1.67
2022-12-28T12:15:45.304Z,1.80
2022-12-28T12:18:52.369Z,1.48
2022-12-28T12:22:06.840Z,1.85
2022-12-28T12:25:23.965Z,1.30
2022-12-28T12:28:29.544Z,1.57
2022-12-28T12:31:37.729Z,2.27
2022-12-28T12:34:47.311Z,2.00
2022-12-28T12:38:27.562Z,1.62
2022-12-28T12:42:10.094Z,2.10
2022-12-28T12:45:36.515Z,3.57
2022-12-28T12:48:47.773Z,2.17
2022-12-28T12:52:18.189Z,2.67
2022-12-28T12:55:34.254Z,2.58
2022-12-28T12:58:54.814Z,2.97
2022-12-28T13:02:12.495Z,3.00
2022-12-28T13:05:24.479Z,3.53
2022-12-28T13:08:33.294Z,2.92
2022-12-28T13:11:38.860Z,2.35
2022-12-28T13:14:45.803Z,4.32
2022-12-28T13:21:45.156Z,3.30
2022-12-28T13:24:48.065Z,2.97
2022-12-28T13:27:50.175Z,2.78
2022-12-28T13:31:22.653Z,2.55
2022-12-28T13:34:36.165Z,2.47
2022-12-28T13:37:38.210Z,2.97
2022-12-28T13:40:49.118Z,2.37
2022-12-28T13:43:57.054Z,2.60
2022-12-28T13:47:09.310Z,2.75
2022-12-28T13:50:16.472Z,2.70
2022-12-28T13:53:23.405Z,2.47
2022-12-28T13:56:27.078Z,2.42
2022-12-28T13:59:29.331Z,4.18
2022-12-28T14:02:34.578Z,3.30
2022-12-28T14:05:36.951Z,2.83
2022-12-28T14:08:40.350Z,3.33
2022-12-28T14:11:45.295Z,3.25
2022-12-28T14:14:48.776Z,2.25
2022-12-28T14:17:52.600Z,3.12
2022-12-28T14:20:58.151Z,3.30
2022-12-28T14:24:07.581Z,2.90
2022-12-28T14:27:09.616Z,3.10
2022-12-28T14:30:23.063Z,2.55
2022-12-28T14:33:27.930Z,1.80
2022-12-28T14:36:37.482Z,2.30
2022-12-28T14:39:45.497Z,2.10
2022-12-28T14:42:51.144Z,2.60
2022-12-28T14:49:28.493Z,3.05
2022-12-28T14:53:11.156Z,3.30
2022-12-28T14:56:19.181Z,3.00
2022-12-28T14:59:33.564Z,3.40
2022-12-28T15:00:25.778Z,2.67
2022-12-28T15:02:35.731Z,3.55
2022-12-28T15:05:50.743Z,2.60
2022-12-28T15:08:54.856Z,2.77
2022-12-28T15:12:18.165Z,2.93
2022-12-28T15:15:23.664Z,2.55
2022-12-28T15:18:28.032Z,2.85
2022-12-28T15:21:30.557Z,2.37
2022-12-28T15:24:34.603Z,2.20
2022-12-28T15:27:36.925Z,3.27
2022-12-28T15:30:45.171Z,2.60
2022-12-28T15:33:48.188Z,2.50
2022-12-28T15:36:51.053Z,2.22
2022-12-28T15:39:53.111Z,2.60
2022-12-28T15:42:55.234Z,2.70
2022-12-28T15:45:59.356Z,3.20
2022-12-28T15:49:02.325Z,3.28
2022-12-28T15:52:04.580Z,3.65
2022-12-28T15:55:06.951Z,9.63
2022-12-28T15:58:09.097Z,2.80
2022-12-28T16:01:11.222Z,3.17
2022-12-28T16:04:14.346Z,3.70
2022-12-28T16:07:16.460Z,6.15
2022-12-28T16:10:19.237Z,4.30
2022-12-28T16:13:21.714Z,3.97
2022-12-28T16:16:25.242Z,2.95
2022-12-28T16:19:27.339Z,2.55
2022-12-28T16:22:29.417Z,2.47
2022-12-28T16:25:31.485Z,2.40
2022-12-28T16:28:34.226Z,2.33
2022-12-28T16:31:38.264Z,2.35
2022-12-28T16:34:40.468Z,2.17
2022-12-28T16:37:43.326Z,1.95
2022-12-28T16:40:46.386Z,2.23
2022-12-28T16:43:48.741Z,2.53
2022-12-28T16:46:51.400Z,2.53
2022-12-28T16:49:53.509Z,2.65
2022-12-28T16:53:00.990Z,2.60
2022-12-28T16:56:04.910Z,2.50
2022-12-28T16:59:07.271Z,1.80
2022-12-28T17:02:12.871Z,2.05
2022-12-28T17:05:15.681Z,3.28
2022-12-28T17:08:18.698Z,7.82
2022-12-28T17:11:21.020Z,3.00
2022-12-28T17:14:37.422Z,3.00
2022-12-28T17:17:39.879Z,5.25
2022-12-28T17:20:42.132Z,3.53
2022-12-28T17:23:44.468Z,4.10
2022-12-28T17:26:46.536Z,3.00
2022-12-28T17:29:48.801Z,2.27
2022-12-28T17:32:51.035Z,1.95
2022-12-28T17:35:55.843Z,2.90
2022-12-28T17:38:58.055Z,3.55
2022-12-28T17:42:00.398Z,4.03
2022-12-28T17:45:07.575Z,2.67
2022-12-28T17:48:13.855Z,3.35
2022-12-28T17:51:16.090Z,2.15
2022-12-28T17:54:18.468Z,1.35
2022-12-28T17:57:20.858Z,1.57
2022-12-28T18:00:23.072Z,1.40
2022-12-28T18:03:31.570Z,1.83
2022-12-28T18:06:35.949Z,1.80
2022-12-28T18:09:38.391Z,2.95
2022-12-28T18:12:41.042Z,2.63
2022-12-28T18:15:45.709Z,2.50
2022-12-28T18:18:48.345Z,2.58
2022-12-28T18:21:50.714Z,2.55
2022-12-28T18:24:53.711Z,1.95
2022-12-28T18:27:57.219Z,2.07
2022-12-28T18:31:02.786Z,2.47
2022-12-28T18:34:08.246Z,2.80
2022-12-28T18:37:11.703Z,2.87
2022-12-28T18:40:16.479Z,2.78
2022-12-28T18:43:21.809Z,2.50
2022-12-28T18:46:28.386Z,2.30
2022-12-28T18:49:33.439Z,2.22
2022-12-28T18:52:36.771Z,2.97
2022-12-28T18:55:44.004Z,4.35
2022-12-28T18:58:54.339Z,2.70
2022-12-28T19:02:06.945Z,3.70
2022-12-28T19:05:11.968Z,2.85
2022-12-28T19:08:15.614Z,2.92
2022-12-28T19:11:25.067Z,2.62
2022-12-28T19:14:29.880Z,5.17
2022-12-28T19:17:34.691Z,3.03
2022-12-28T19:20:38.241Z,3.20
2022-12-28T19:23:41.759Z,3.53
2022-12-28T19:26:46.667Z,3.78
2022-12-28T19:29:51.033Z,3.40
2022-12-28T19:32:55.668Z,3.83
2022-12-28T19:35:59.727Z,3.92
2022-12-28T19:39:03.343Z,3.80
2022-12-28T19:42:07.370Z,3.25
2022-12-28T19:45:12.924Z,3.97
2022-12-28T19:48:17.042Z,3.03
2022-12-28T19:51:27.079Z,2.42
2022-12-28T19:54:32.847Z,2.92
2022-12-28T19:57:38.693Z,4.32
2022-12-28T20:00:43.381Z,3.63
2022-12-28T20:03:46.936Z,3.27
2022-12-28T20:06:49.916Z,2.78
2022-12-28T20:09:52.461Z,3.35
2022-12-28T20:12:54.826Z,3.50
2022-12-28T20:15:58.629Z,5.37
2022-12-28T20:19:03.323Z,5.47
2022-12-28T20:22:06.001Z,4.80
2022-12-28T20:25:09.705Z,3.72
2022-12-28T20:28:12.134Z,4.00
2022-12-28T20:31:15.647Z,3.83
2022-12-28T20:34:18.045Z,5.20
2022-12-28T20:37:20.870Z,5.35
2022-12-28T20:40:23.659Z,4.95
2022-12-28T20:43:27.831Z,4.50
2022-12-28T20:46:30.591Z,5.10
2022-12-28T20:49:33.985Z,4.43
2022-12-28T20:52:37.065Z,6.00
2022-12-28T20:55:39.395Z,5.20
2022-12-28T20:58:44.564Z,4.53
2022-12-28T21:01:47.938Z,6.03
2022-12-28T21:04:51.480Z,4.83
2022-12-28T21:07:54.299Z,4.82
2022-12-28T21:10:56.785Z,6.10
2022-12-28T21:14:00.311Z,3.17
2022-12-28T21:17:02.695Z,5.40
2022-12-28T21:20:05.711Z,4.97
2022-12-28T21:23:08.407Z,6.32
2022-12-28T21:26:18.946Z,5.97
2022-12-28T21:29:25.798Z,5.53
2022-12-28T21:32:28.467Z,4.97
2022-12-28T21:35:34.296Z,4.60
2022-12-28T21:38:39.491Z,4.20
2022-12-28T21:41:50.979Z,6.00
2022-12-28T21:44:53.229Z,6.25
2022-12-28T21:47:55.369Z,4.53
2022-12-28T21:51:30.426Z,3.83
2022-12-28T21:54:33.627Z,4.68
2022-12-28T21:57:35.702Z,4.32
2022-12-28T22:00:56.365Z,3.40
2022-12-28T22:04:17.084Z,3.20
2022-12-28T22:07:21.177Z,3.80
2022-12-28T22:10:42.133Z,3.30
2022-12-28T22:13:44.700Z,5.40
2022-12-28T22:16:46.812Z,3.72
2022-12-28T22:19:49.101Z,4.87
2022-12-28T22:22:51.272Z,5.40
2022-12-28T22:25:53.407Z,5.20
2022-12-28T22:28:55.640Z,5.07
2022-12-28T22:31:57.749Z,5.37
2022-12-28T22:34:59.847Z,5.40
2022-12-28T22:38:01.900Z,5.17
2022-12-28T22:41:03.960Z,5.70
2022-12-28T22:44:06.010Z,5.15
2022-12-28T22:47:08.882Z,5.53
2022-12-28T22:50:13.071Z,3.03
2022-12-28T22:53:15.149Z,4.30
2022-12-28T22:56:20.933Z,6.32
2022-12-28T22:59:23.239Z,5.75
2022-12-28T23:02:25.559Z,4.03
2022-12-28T23:05:27.816Z,5.87
2022-12-28T23:08:29.899Z,2.93
2022-12-28T23:11:38.343Z,4.85
2022-12-28T23:14:59.192Z,5.15
2022-12-28T23:18:21.281Z,4.10
2022-12-28T23:21:42.670Z,5.53
2022-12-28T23:25:03.441Z,4.03
2022-12-28T23:28:08.501Z,5.50
2022-12-28T23:31:10.913Z,5.70
2022-12-28T23:34:13.014Z,5.22
2022-12-28T23:37:15.151Z,6.40
2022-12-28T23:40:18.962Z,5.27
2022-12-28T23:43:21.133Z,5.32
2022-12-28T23:46:23.280Z,4.22
2022-12-28T23:49:25.558Z,5.43
2022-12-28T23:52:28.547Z,5.40
2022-12-28T23:55:30.732Z,6.30
2022-12-28T23:58:33.015Z,6.15
